Bullhead, South Dakota
Current Conditions -  °F | °C
As of 6:52 PM on Friday 21 Nov 2014 (Local Time) from KMBG Reporting Station
Clear Clear  
Wind Chill: 25°   Ceiling: Unl
Heat Index: 32°   Visibility: 10mi
Dew Point: 27°   Wind: 8mph
Humidity: 82%   Direction: 130°SE
Pressure: 29.75"   Gusts: NA
Location:  45.77°N, 101.08°W
Report Text: KMBG 220152Z AUTO 13007KT 10SM CLR 00/M03 A2975 RMK AO2 SLP098 T00001028
Loading
Personal Weather Stations






























Interactive Weather Map New forecast layout! Learn more

10-Day Weather Forecast

Advertisements
Track Severe Weather on mobile